createdAt,value
2022-12-22T00:02:10.143Z,63.67
2022-12-22T00:05:51.252Z,60.55
2022-12-22T00:09:32.470Z,47.90
2022-12-22T00:13:14.657Z,36.63
2022-12-22T00:16:56.198Z,40.95
2022-12-22T00:20:38.623Z,37.60
2022-12-22T00:24:19.740Z,34.10
2022-12-22T00:28:01.207Z,33.88
2022-12-22T00:31:43.878Z,36.00
2022-12-22T00:35:25.058Z,35.33
2022-12-22T00:39:06.118Z,39.08
2022-12-22T00:42:47.196Z,42.65
2022-12-22T00:46:30.868Z,38.10
2022-12-22T00:50:13.323Z,44.25
2022-12-22T00:53:54.311Z,41.78
2022-12-22T00:57:37.233Z,47.60
2022-12-22T01:01:18.239Z,47.08
2022-12-22T01:04:59.161Z,55.30
2022-12-22T01:08:41.401Z,46.88
2022-12-22T01:12:22.656Z,57.70
2022-12-22T01:16:03.939Z,58.75
2022-12-22T01:19:44.914Z,45.65
2022-12-22T01:23:28.064Z,49.88
2022-12-22T01:27:10.199Z,45.10
2022-12-22T01:30:50.985Z,57.70
2022-12-22T01:34:32.024Z,55.53
2022-12-22T01:38:13.101Z,47.00
2022-12-22T01:41:54.331Z,62.88
2022-12-22T01:45:40.382Z,71.22
2022-12-22T01:49:21.442Z,68.80
2022-12-22T01:53:02.332Z,66.47
2022-12-22T01:56:43.510Z,62.13
2022-12-22T02:00:24.905Z,66.70
2022-12-22T02:04:07.215Z,62.13
2022-12-22T02:07:59.845Z,52.35
2022-12-22T02:11:47.180Z,48.92
2022-12-22T02:15:32.919Z,49.92
2022-12-22T02:19:16.791Z,55.45
2022-12-22T02:23:02.846Z,56.72
2022-12-22T02:26:47.471Z,67.15
2022-12-22T02:30:28.669Z,61.65
2022-12-22T02:34:09.542Z,64.45
2022-12-22T02:37:56.033Z,72.80
2022-12-22T02:41:42.711Z,69.53
2022-12-22T02:45:29.459Z,57.05
2022-12-22T02:49:15.246Z,63.95
2022-12-22T02:52:56.634Z,65.80
2022-12-22T02:56:37.656Z,75.32
2022-12-22T03:00:18.885Z,56.70
2022-12-22T03:04:01.116Z,55.15
2022-12-22T03:07:42.001Z,55.13
2022-12-22T03:11:22.846Z,59.70
2022-12-22T03:15:03.644Z,53.65
2022-12-22T03:18:44.570Z,56.05
2022-12-22T03:22:26.758Z,55.17
2022-12-22T03:25:54.018Z,52.83
2022-12-22T03:29:17.379Z,70.10
2022-12-22T03:32:40.710Z,50.80
2022-12-22T03:36:04.481Z,53.75
2022-12-22T03:39:29.231Z,51.58
2022-12-22T03:43:10.050Z,60.22
2022-12-22T03:46:33.439Z,61.35
2022-12-22T03:49:56.813Z,53.70
2022-12-22T03:53:20.247Z,43.53
2022-12-22T03:56:44.940Z,49.40
2022-12-22T04:00:09.004Z,38.78
2022-12-22T04:03:35.255Z,42.58
2022-12-22T04:06:58.566Z,30.92
2022-12-22T04:10:39.557Z,37.58
2022-12-22T04:14:04.414Z,29.85
2022-12-22T04:17:27.757Z,36.42
2022-12-22T04:20:51.061Z,35.47
2022-12-22T04:24:14.629Z,37.42
2022-12-22T04:27:37.997Z,39.83
2022-12-22T04:31:02.712Z,31.08
2022-12-22T04:34:26.036Z,35.20
2022-12-22T04:37:49.396Z,31.50
2022-12-22T04:41:12.933Z,30.35
2022-12-22T04:44:36.264Z,21.40
2022-12-22T04:48:00.992Z,23.48
2022-12-22T04:51:24.279Z,28.05
2022-12-22T04:54:47.573Z,21.90
2022-12-22T04:58:10.839Z,24.20
2022-12-22T05:01:34.279Z,23.95
2022-12-22T05:04:59.051Z,25.85
2022-12-22T05:08:22.359Z,25.15
2022-12-22T05:11:45.657Z,27.52
2022-12-22T05:15:09.541Z,22.58
2022-12-22T05:18:32.907Z,24.02
2022-12-22T05:21:57.633Z,27.15
2022-12-22T05:25:21.163Z,30.35
2022-12-22T05:28:45.200Z,33.13
2022-12-22T05:32:08.551Z,37.83
2022-12-22T05:35:31.931Z,40.10
2022-12-22T05:38:56.629Z,36.30
2022-12-22T05:42:35.762Z,48.30
2022-12-22T05:45:59.293Z,34.88
2022-12-22T05:49:22.663Z,37.70
2022-12-22T05:52:46.312Z,34.83
2022-12-22T05:56:11.178Z,39.40
2022-12-22T05:59:34.494Z,37.90
2022-12-22T06:02:57.888Z,35.47
2022-12-22T06:06:21.278Z,59.08
2022-12-22T06:09:44.613Z,48.03
2022-12-22T06:13:09.387Z,58.08
2022-12-22T06:16:32.781Z,53.85
2022-12-22T06:19:58.924Z,62.08
2022-12-22T06:23:22.668Z,69.13
2022-12-22T06:26:45.997Z,66.53
2022-12-22T06:30:11.638Z,77.95
2022-12-22T06:33:35.898Z,91.43
2022-12-22T06:36:59.285Z,192.52
2022-12-22T06:40:22.653Z,53.95
2022-12-22T06:43:44.996Z,132.20
2022-12-22T06:47:09.655Z,171.73
2022-12-22T06:50:33.074Z,313.98
2022-12-22T06:53:56.347Z,107.03
2022-12-22T06:57:19.674Z,66.63
2022-12-22T07:00:43.564Z,57.22
2022-12-22T07:04:08.305Z,224.63
2022-12-22T07:07:31.598Z,84.30
2022-12-22T07:11:00.901Z,59.88
2022-12-22T07:14:24.340Z,66.25
2022-12-22T07:17:47.735Z,82.05
2022-12-22T07:21:14.007Z,61.60
2022-12-22T07:24:37.345Z,85.13
2022-12-22T07:28:00.706Z,93.10
2022-12-22T07:31:24.317Z,71.35
2022-12-22T07:34:47.947Z,80.90
2022-12-22T07:38:12.610Z,86.20
2022-12-22T07:41:53.654Z,77.82
2022-12-22T07:45:17.983Z,67.53
2022-12-22T07:48:58.790Z,57.90
2022-12-22T07:52:22.172Z,70.72
2022-12-22T07:55:46.957Z,73.25
2022-12-22T07:59:10.639Z,83.28
2022-12-22T08:02:38.715Z,92.15
2022-12-22T08:06:05.488Z,74.75
2022-12-22T08:09:31.975Z,74.32
2022-12-22T08:12:56.844Z,92.85
2022-12-22T08:16:22.252Z,70.53
2022-12-22T08:19:45.653Z,85.75
2022-12-22T08:23:08.935Z,89.10
2022-12-22T08:26:36.179Z,85.72
2022-12-22T08:30:02.571Z,95.45
2022-12-22T08:33:26.062Z,101.72
2022-12-22T08:36:50.792Z,104.60
2022-12-22T08:40:16.308Z,99.80
2022-12-22T08:43:39.722Z,100.38
2022-12-22T08:47:04.438Z,112.75
2022-12-22T08:50:28.038Z,106.35
2022-12-22T08:54:07.325Z,105.20
2022-12-22T08:57:30.787Z,115.97
2022-12-22T09:00:54.279Z,137.07
2022-12-22T09:04:20.076Z,121.28
2022-12-22T09:07:43.563Z,89.45
2022-12-22T09:11:07.064Z,82.38
2022-12-22T09:14:30.433Z,83.43
2022-12-22T09:17:53.764Z,77.38
2022-12-22T09:21:18.837Z,79.25
2022-12-22T09:24:42.190Z,72.55
2022-12-22T09:28:08.834Z,62.78
2022-12-22T09:31:32.528Z,74.47
2022-12-22T09:34:56.002Z,76.75
2022-12-22T09:38:20.740Z,72.85
2022-12-22T09:41:45.713Z,70.03
2022-12-22T09:45:17.035Z,76.75
2022-12-22T09:48:40.760Z,81.18
2022-12-22T09:52:05.262Z,90.18
2022-12-22T09:55:38.041Z,86.50
2022-12-22T09:59:02.405Z,85.93
2022-12-22T10:02:28.657Z,84.63
2022-12-22T10:05:55.508Z,99.05
2022-12-22T10:09:48.176Z,87.80
2022-12-22T10:13:05.050Z,103.85
2022-12-22T10:16:30.161Z,96.65
2022-12-22T10:19:54.574Z,100.22
2022-12-22T10:23:18.969Z,108.18
2022-12-22T10:26:42.455Z,99.43
2022-12-22T10:30:24.301Z,106.03
2022-12-22T10:33:48.484Z,100.32
2022-12-22T10:37:11.884Z,99.22
2022-12-22T10:40:43.715Z,86.55
2022-12-22T10:44:09.327Z,91.07
2022-12-22T10:47:34.185Z,83.13
2022-12-22T10:50:58.388Z,80.32
2022-12-22T10:54:27.325Z,92.30
2022-12-22T10:57:51.045Z,81.93
2022-12-22T11:01:14.465Z,92.63
2022-12-22T11:04:39.238Z,78.85
2022-12-22T11:08:05.329Z,81.55
2022-12-22T11:11:34.029Z,63.65
2022-12-22T11:15:00.923Z,60.03
2022-12-22T11:18:36.169Z,49.22
2022-12-22T11:22:07.116Z,37.83
2022-12-22T11:25:33.412Z,34.30
2022-12-22T11:29:05.725Z,28.83
2022-12-22T11:32:36.413Z,30.67
2022-12-22T11:36:01.226Z,30.05
2022-12-22T11:39:34.148Z,27.08
2022-12-22T11:43:06.277Z,29.48
2022-12-22T11:46:33.882Z,23.52
2022-12-22T11:50:58.270Z,22.00
2022-12-22T11:53:58.012Z,22.70
2022-12-22T11:57:28.815Z,19.80
2022-12-22T12:01:14.955Z,19.98
2022-12-22T12:05:05.049Z,18.85
2022-12-22T12:08:34.302Z,18.60
2022-12-22T12:12:02.275Z,16.70
2022-12-22T12:15:32.491Z,16.98
2022-12-22T12:19:06.153Z,21.00
2022-12-22T12:22:38.216Z,19.38
2022-12-22T12:26:04.306Z,22.05
2022-12-22T12:29:29.025Z,20.55
2022-12-22T12:32:57.391Z,20.77
2022-12-22T12:36:24.496Z,22.23
2022-12-22T12:39:52.378Z,22.65
2022-12-22T12:43:16.935Z,23.80
2022-12-22T12:47:01.519Z,23.55
2022-12-22T12:50:33.188Z,24.90
2022-12-22T12:54:11.358Z,28.02
2022-12-22T12:57:47.342Z,25.77
2022-12-22T13:01:11.938Z,24.15
2022-12-22T13:04:53.783Z,22.25
2022-12-22T13:08:22.375Z,21.02
2022-12-22T13:12:11.715Z,23.35
2022-12-22T13:15:36.320Z,18.15
2022-12-22T13:19:16.066Z,17.90
2022-12-22T13:22:40.272Z,17.15
2022-12-22T13:26:09.324Z,16.90
2022-12-22T13:29:42.879Z,13.63
2022-12-22T13:33:35.094Z,13.82
2022-12-22T13:37:12.414Z,12.63
2022-12-22T13:40:42.167Z,10.73
2022-12-22T13:44:10.042Z,16.95
2022-12-22T13:47:35.583Z,15.93
2022-12-22T13:51:01.356Z,13.88
2022-12-22T13:54:27.107Z,11.20
2022-12-22T13:57:58.303Z,11.50
2022-12-22T14:01:24.312Z,15.70
2022-12-22T14:05:04.826Z,13.10
2022-12-22T14:08:28.461Z,11.55
2022-12-22T14:11:53.535Z,15.30
2022-12-22T14:15:19.832Z,14.88
2022-12-22T14:18:44.837Z,18.25
2022-12-22T14:22:09.940Z,18.27
2022-12-22T14:25:34.191Z,13.02
2022-12-22T14:28:58.854Z,13.60
2022-12-22T14:32:39.168Z,14.02
2022-12-22T14:36:07.563Z,15.32
2022-12-22T14:39:31.947Z,14.50
2022-12-22T14:42:55.385Z,22.85
2022-12-22T14:46:20.172Z,20.42
2022-12-22T14:49:50.769Z,20.67
2022-12-22T14:53:16.936Z,16.73
2022-12-22T14:56:49.032Z,13.35
2022-12-22T15:00:28.952Z,16.13
2022-12-22T15:04:07.229Z,15.68
2022-12-22T15:08:03.837Z,15.05
2022-12-22T15:11:17.182Z,21.05
2022-12-22T15:14:40.608Z,13.73
2022-12-22T15:18:04.684Z,11.73
2022-12-22T15:21:27.947Z,13.25
2022-12-22T15:24:51.276Z,11.65
2022-12-22T15:28:16.445Z,14.15
2022-12-22T15:31:40.547Z,12.82
2022-12-22T15:35:04.241Z,16.70
2022-12-22T15:38:29.248Z,17.55
2022-12-22T15:41:55.554Z,18.63
2022-12-22T15:45:20.761Z,19.00
2022-12-22T15:48:44.630Z,20.83
2022-12-22T15:52:08.396Z,21.38
2022-12-22T15:55:31.721Z,27.25
2022-12-22T15:58:55.240Z,31.25
2022-12-22T16:02:20.044Z,27.08
2022-12-22T16:05:43.640Z,28.20
2022-12-22T16:09:08.307Z,26.02
2022-12-22T16:12:32.218Z,24.92
2022-12-22T16:15:55.808Z,24.80
2022-12-22T16:19:20.895Z,28.65
2022-12-22T16:22:44.738Z,31.90
2022-12-22T16:26:08.679Z,31.17
2022-12-22T16:29:32.108Z,36.88
2022-12-22T16:32:55.446Z,46.33
2022-12-22T16:36:20.285Z,35.05
2022-12-22T16:39:43.588Z,37.75
2022-12-22T16:46:51.771Z,35.33
2022-12-22T16:50:19.859Z,33.50
2022-12-22T16:53:44.576Z,36.25
2022-12-22T16:57:09.636Z,36.80
2022-12-22T17:00:36.404Z,39.90
2022-12-22T17:04:02.569Z,38.58
2022-12-22T17:07:25.999Z,37.95
2022-12-22T17:10:51.048Z,39.60
2022-12-22T17:14:18.884Z,37.83
2022-12-22T17:17:42.677Z,35.78
2022-12-22T17:21:06.066Z,36.50
2022-12-22T17:24:30.046Z,49.60
2022-12-22T17:27:54.851Z,42.70
2022-12-22T17:31:18.403Z,41.47
2022-12-22T17:34:41.799Z,43.65
2022-12-22T17:38:05.173Z,32.92
2022-12-22T17:41:28.476Z,31.38
2022-12-22T17:44:53.685Z,34.45
2022-12-22T17:48:17.807Z,34.70
2022-12-22T17:51:41.447Z,33.35
2022-12-22T17:55:06.132Z,36.30
2022-12-22T17:58:29.405Z,37.92
2022-12-22T18:01:54.172Z,40.70
2022-12-22T18:05:18.404Z,38.40
2022-12-22T18:08:41.764Z,43.38
2022-12-22T18:12:05.109Z,32.15
2022-12-22T18:15:29.442Z,35.47
2022-12-22T18:18:54.153Z,40.38
2022-12-22T18:22:19.563Z,36.50
2022-12-22T18:25:42.876Z,38.03
2022-12-22T18:29:06.230Z,40.80
2022-12-22T18:32:29.527Z,42.28
2022-12-22T18:35:54.284Z,36.10
2022-12-22T18:39:20.112Z,37.88
2022-12-22T18:42:43.456Z,26.85
2022-12-22T18:46:06.884Z,25.95
2022-12-22T18:49:30.166Z,29.23
2022-12-22T18:52:56.108Z,30.08
2022-12-22T18:56:19.439Z,28.95
2022-12-22T18:59:43.030Z,24.08
2022-12-22T19:03:14.869Z,24.27
2022-12-22T19:06:38.357Z,26.55
2022-12-22T19:10:03.026Z,24.25
2022-12-22T19:13:28.824Z,27.23
2022-12-22T19:16:52.199Z,30.48
2022-12-22T19:20:17.127Z,27.17
2022-12-22T19:23:40.509Z,28.52
2022-12-22T19:27:05.563Z,30.17
2022-12-22T19:30:30.625Z,24.05
2022-12-22T19:33:54.150Z,26.38
2022-12-22T19:37:18.352Z,33.33
2022-12-22T19:40:41.682Z,29.17
2022-12-22T19:44:06.691Z,30.33
2022-12-22T19:47:30.521Z,23.80
2022-12-22T19:50:54.769Z,32.00
2022-12-22T19:54:19.252Z,45.28
2022-12-22T19:57:44.066Z,40.65
2022-12-22T20:01:11.517Z,42.53
2022-12-22T20:04:34.874Z,35.25
2022-12-22T20:07:59.179Z,54.85
2022-12-22T20:11:22.615Z,37.63
2022-12-22T20:14:45.950Z,47.17
2022-12-22T20:18:15.973Z,53.80
2022-12-22T20:21:39.360Z,44.33
2022-12-22T20:25:02.676Z,39.25
2022-12-22T20:28:26.976Z,48.30
2022-12-22T20:31:50.367Z,46.92
2022-12-22T20:35:15.086Z,40.20
2022-12-22T20:38:39.057Z,39.25
2022-12-22T20:42:02.409Z,45.55
2022-12-22T20:45:28.536Z,56.88
2022-12-22T20:48:53.783Z,42.80
2022-12-22T20:52:19.082Z,55.20
2022-12-22T20:55:42.413Z,39.92
2022-12-22T20:59:13.019Z,47.83
2022-12-22T21:02:37.363Z,37.75
2022-12-22T21:06:00.847Z,54.33
2022-12-22T21:09:25.805Z,42.30
2022-12-22T21:12:49.315Z,52.45
2022-12-22T21:16:14.671Z,37.38
2022-12-22T21:19:37.989Z,46.75
2022-12-22T21:23:01.311Z,36.72
2022-12-22T21:26:28.647Z,45.70
2022-12-22T21:29:51.919Z,37.00
2022-12-22T21:33:15.218Z,40.75
2022-12-22T21:36:38.768Z,34.90
2022-12-22T21:40:02.094Z,40.08
2022-12-22T21:43:27.048Z,35.67
2022-12-22T21:46:50.547Z,30.95
2022-12-22T21:50:20.532Z,24.63
2022-12-22T21:53:43.842Z,31.63
2022-12-22T21:57:07.272Z,26.10
2022-12-22T22:00:32.929Z,23.65
2022-12-22T22:03:56.455Z,32.70
2022-12-22T22:07:19.872Z,30.90
2022-12-22T22:10:43.700Z,28.92
2022-12-22T22:14:07.003Z,32.30
2022-12-22T22:17:31.783Z,26.13
2022-12-22T22:20:55.045Z,27.30
2022-12-22T22:24:18.372Z,32.45
2022-12-22T22:27:47.459Z,32.42
2022-12-22T22:31:12.030Z,40.50
2022-12-22T22:34:36.774Z,31.88
2022-12-22T22:38:00.160Z,24.08
2022-12-22T22:41:24.807Z,32.05
2022-12-22T22:44:48.124Z,24.02
2022-12-22T22:48:13.162Z,26.35
2022-12-22T22:51:37.909Z,25.05
2022-12-22T22:55:01.218Z,35.75
2022-12-22T22:58:26.373Z,26.08
2022-12-22T23:01:49.743Z,25.60
2022-12-22T23:05:18.750Z,26.67
2022-12-22T23:08:49.630Z,21.17
2022-12-22T23:12:13.062Z,20.17
2022-12-22T23:15:36.378Z,20.35
2022-12-22T23:19:00.014Z,29.77
2022-12-22T23:22:23.301Z,19.60
2022-12-22T23:25:50.540Z,21.45
2022-12-22T23:29:19.065Z,19.00
2022-12-22T23:32:42.436Z,16.85
2022-12-22T23:36:06.036Z,17.92
2022-12-22T23:39:29.434Z,19.50
2022-12-22T23:42:56.963Z,15.35
2022-12-22T23:46:20.774Z,15.88
2022-12-22T23:49:44.270Z,24.13
2022-12-22T23:53:07.710Z,28.77
2022-12-22T23:56:31.435Z,16.10
2022-12-22T23:59:56.330Z,23.60
